Time;durP1;ratioP1;P1;durP2;ratioP2;P2;SDS_P1;SDS_P2;PMS_P1;PMS_P2;Temp;Humidity;BMP_temperature;BMP_pressure;BME280_temperature;BME280_humidity;BME280_pressure;Samples;Min_cycle;Max_cycle;Signal;HPM_P1;HPM_P2
2022/09/29 00:01:28;;;;;;;20.30;4.10;;;20.80;91.80;;;;;;4973935;28;20038;-69
2022/09/29 00:03:54;;;;;;;20.17;4.32;;;20.80;91.80;;;;;;4974016;28;20555;-70
2022/09/29 00:06:20;;;;;;;23.77;4.28;;;20.80;91.80;;;;;;4974024;28;20031;-70
2022/09/29 00:08:46;;;;;;;20.90;4.43;;;20.80;91.70;;;;;;4973789;28;20046;-69
2022/09/29 00:11:15;;;;;;;16.33;3.65;;;20.80;91.90;;;;;;4974039;28;20181;-70
2022/09/29 00:13:42;;;;;;;19.98;4.25;;;20.70;91.90;;;;;;5004188;28;20084;-71
2022/09/29 00:16:07;;;;;;;17.48;3.33;;;20.70;92.00;;;;;;5012871;28;20110;-71
2022/09/29 00:18:34;;;;;;;18.50;3.78;;;20.70;92.40;;;;;;5013081;28;20061;-71
2022/09/29 00:21:02;;;;;;;18.45;3.20;;;20.60;92.10;;;;;;5012779;28;20038;-68
2022/09/29 00:23:30;;;;;;;19.60;4.15;;;20.60;92.20;;;;;;5012915;28;20021;-70
2022/09/29 00:26:07;;;;;;;21.75;3.47;;;20.60;92.30;;;;;;5012697;28;20049;-68
2022/09/29 00:28:34;;;;;;;23.38;3.92;;;20.60;92.30;;;;;;5012839;28;20084;-69
2022/09/29 00:31:01;;;;;;;17.80;3.65;;;20.60;92.30;;;;;;5012565;28;20034;-68
2022/09/29 00:33:32;;;;;;;17.48;4.10;;;20.60;92.30;;;;;;5012641;28;20024;-70
2022/09/29 00:36:07;;;;;;;21.17;4.20;;;20.60;92.30;;;;;;4994845;28;20395;-70
2022/09/29 00:38:33;;;;;;;22.90;4.00;;;20.70;92.30;;;;;;5012703;28;20025;-68
2022/09/29 00:40:59;;;;;;;23.27;3.90;;;20.70;92.30;;;;;;5012600;28;20105;-69
2022/09/29 00:43:53;;;;;;;24.45;4.57;;;20.70;92.30;;;;;;5012683;28;20026;-68
2022/09/29 00:46:43;;;;;;;18.23;4.13;;;20.80;92.40;;;;;;5012615;28;20108;-68
2022/09/29 00:49:33;;;;;;;20.08;3.10;;;20.80;92.30;;;;;;5012466;28;20041;-68
2022/09/29 00:52:04;;;;;;;20.17;3.67;;;20.80;92.30;;;;;;5012784;28;20490;-68
2022/09/29 00:54:36;;;;;;;22.70;3.92;;;20.90;92.00;;;;;;4994836;28;20030;-69
2022/09/29 00:57:06;;;;;;;20.45;3.25;;;20.90;92.00;;;;;;5012324;28;20498;-67
2022/09/29 00:59:39;;;;;;;18.17;3.42;;;20.90;92.00;;;;;;5012294;28;20030;-69
2022/09/29 01:02:05;;;;;;;23.10;4.13;;;21.00;92.00;;;;;;5012484;28;20034;-70
2022/09/29 01:04:31;;;;;;;23.70;4.03;;;21.00;92.00;;;;;;5015846;28;20113;-69
2022/09/29 01:06:57;;;;;;;24.90;4.72;;;21.00;91.90;;;;;;5016240;28;20057;-71
2022/09/29 01:09:28;;;;;;;24.48;4.45;;;21.10;91.90;;;;;;5016011;28;20376;-68
2022/09/29 01:11:57;;;;;;;22.20;3.63;;;21.10;91.80;;;;;;5016500;28;20387;-69
2022/09/29 01:14:23;;;;;;;17.58;3.65;;;21.10;91.80;;;;;;4998466;28;20368;-69
2022/09/29 01:16:49;;;;;;;21.45;4.15;;;21.10;91.80;;;;;;5015965;28;20483;-68
2022/09/29 01:19:32;;;;;;;23.45;4.30;;;21.10;91.90;;;;;;5015780;28;20129;-68
2022/09/29 01:22:16;;;;;;;24.05;4.05;;;21.10;92.10;;;;;;5016088;28;20037;-71
2022/09/29 01:24:54;;;;;;;20.88;3.67;;;21.20;92.00;;;;;;5015924;28;20037;-68
2022/09/29 01:27:40;;;;;;;19.02;3.78;;;21.20;91.90;;;;;;5015773;28;20079;-69
2022/09/29 01:30:36;;;;;;;21.00;3.88;;;21.20;91.90;;;;;;5015680;28;20391;-69
2022/09/29 01:33:38;;;;;;;17.65;3.67;;;21.20;91.90;;;;;;5015688;28;20033;-69
2022/09/29 01:36:25;;;;;;;19.40;3.38;;;21.20;91.80;;;;;;5015570;28;20472;-69
2022/09/29 01:38:58;;;;;;;21.58;3.58;;;21.20;91.70;;;;;;5015459;28;20072;-72
2022/09/29 01:41:37;;;;;;;21.38;3.13;;;21.20;91.60;;;;;;5015298;28;20113;-70
2022/09/29 01:44:08;;;;;;;16.95;3.88;;;21.10;91.60;;;;;;5015267;28;20037;-71
2022/09/29 01:46:47;;;;;;;20.73;4.30;;;21.10;91.50;;;;;;5015469;28;20037;-69
2022/09/29 01:49:15;;;;;;;15.52;3.65;;;21.10;91.70;;;;;;5015441;28;20018;-69
2022/09/29 01:51:48;;;;;;;19.45;3.50;;;21.00;91.50;;;;;;5015160;28;20018;-69
2022/09/29 01:54:32;;;;;;;17.70;3.88;;;21.00;91.60;;;;;;5015080;28;20081;-70
2022/09/29 01:57:08;;;;;;;19.25;3.67;;;21.00;91.70;;;;;;5015223;28;20030;-70
2022/09/29 01:59:44;;;;;;;25.00;3.65;;;20.90;91.70;;;;;;5014977;28;20037;-69
2022/09/29 02:02:20;;;;;;;14.82;2.97;;;20.90;91.90;;;;;;5015136;28;20053;-67
2022/09/29 02:04:51;;;;;;;19.52;3.70;;;20.80;91.90;;;;;;5014972;28;20506;-71
2022/09/29 02:07:23;;;;;;;18.48;4.00;;;20.80;91.80;;;;;;5014790;28;20025;-72
2022/09/29 02:09:56;;;;;;;21.45;4.60;;;20.80;91.80;;;;;;5014866;28;20112;-70
2022/09/29 02:12:26;;;;;;;16.67;3.65;;;20.80;91.70;;;;;;5014758;28;20105;-70
2022/09/29 02:14:54;;;;;;;18.48;3.30;;;20.80;91.70;;;;;;5014656;28;20069;-71
2022/09/29 02:17:25;;;;;;;25.23;3.58;;;20.80;91.60;;;;;;5014894;28;20104;-70
2022/09/29 02:19:51;;;;;;;19.17;3.63;;;20.80;91.60;;;;;;5014711;28;20125;-70
2022/09/29 02:22:18;;;;;;;19.42;4.47;;;20.80;91.70;;;;;;5014615;28;20025;-70
2022/09/29 02:24:44;;;;;;;21.70;3.72;;;20.80;91.60;;;;;;5014572;28;20487;-69
2022/09/29 02:27:11;;;;;;;17.48;3.80;;;20.80;91.60;;;;;;5014779;28;20034;-69
2022/09/29 02:29:37;;;;;;;16.80;3.47;;;20.90;91.60;;;;;;5014686;28;20068;-72
2022/09/29 02:32:04;;;;;;;19.70;4.28;;;20.90;91.60;;;;;;5014778;28;20379;-71
2022/09/29 02:34:34;;;;;;;21.38;3.55;;;20.90;91.50;;;;;;5014369;28;20022;-69
2022/09/29 02:37:13;;;;;;;17.40;3.80;;;20.90;91.60;;;;;;5014404;28;20110;-70
2022/09/29 02:40:01;;;;;;;16.77;3.47;;;20.90;91.60;;;;;;5014262;28;20034;-70
2022/09/29 02:42:48;;;;;;;16.77;3.30;;;20.90;91.80;;;;;;4986299;28;20399;-69
2022/09/29 02:45:34;;;;;;;19.92;3.38;;;20.90;91.80;;;;;;5014152;28;20114;-69
2022/09/29 02:48:44;;;;;;;15.63;3.28;;;20.90;91.80;;;;;;5014444;28;20446;-70
2022/09/29 02:51:43;;;;;;;19.85;3.35;;;20.90;91.80;;;;;;4977521;28;20073;-69
2022/09/29 02:54:12;;;;;;;16.02;3.30;;;20.90;91.70;;;;;;5014207;28;20041;-68
2022/09/29 02:56:53;;;;;;;12.85;2.97;;;20.90;91.60;;;;;;5014123;28;20409;-70
2022/09/29 02:59:24;;;;;;;17.95;3.45;;;20.90;91.80;;;;;;5014075;28;20034;-70
2022/09/29 03:01:55;;;;;;;19.20;3.70;;;20.90;91.50;;;;;;5013988;28;20034;-68
2022/09/29 03:04:24;;;;;;;15.13;3.08;;;21.00;91.50;;;;;;4996143;28;20387;-68
2022/09/29 03:06:50;;;;;;;17.83;3.95;;;21.00;91.50;;;;;;5013858;28;20463;-67
2022/09/29 03:09:16;;;;;;;15.05;3.33;;;21.00;91.40;;;;;;5013676;28;20060;-68
2022/09/29 03:11:42;;;;;;;20.10;3.45;;;21.00;91.30;;;;;;5013678;28;20500;-69
2022/09/29 03:14:08;;;;;;;14.98;2.58;;;21.00;91.20;;;;;;5013547;28;20106;-68
2022/09/29 03:16:36;;;;;;;16.40;2.88;;;21.00;91.10;;;;;;5013603;28;20029;-70
2022/09/29 03:19:04;;;;;;;23.13;3.70;;;21.00;91.00;;;;;;5013440;28;20420;-69
2022/09/29 03:21:30;;;;;;;17.02;3.65;;;21.00;90.90;;;;;;5013456;28;20045;-67
2022/09/29 03:23:55;;;;;;;20.60;3.30;;;21.00;91.00;;;;;;5013650;28;20068;-69
2022/09/29 03:26:22;;;;;;;24.48;3.72;;;21.00;90.90;;;;;;5012978;28;20033;-68
2022/09/29 03:28:49;;;;;;;18.40;3.42;;;21.00;90.90;;;;;;5013331;28;20475;-67
2022/09/29 03:31:15;;;;;;;18.08;2.97;;;21.00;91.00;;;;;;5013396;28;20049;-69
2022/09/29 03:33:40;;;;;;;13.93;3.25;;;20.90;91.00;;;;;;5013226;28;20480;-68
2022/09/29 03:36:07;;;;;;;21.95;2.80;;;20.90;91.00;;;;;;5013139;28;20452;-69
2022/09/29 03:38:33;;;;;;;19.00;2.97;;;20.90;91.10;;;;;;4995418;28;20427;-68
2022/09/29 03:40:59;;;;;;;18.25;3.13;;;20.90;91.20;;;;;;5013171;28;20034;-67
2022/09/29 03:43:25;;;;;;;20.42;3.40;;;20.80;91.20;;;;;;5013290;28;20464;-69
2022/09/29 03:45:52;;;;;;;13.75;2.53;;;20.80;91.20;;;;;;5013665;28;20109;-70
2022/09/29 03:48:19;;;;;;;16.75;3.40;;;20.80;91.30;;;;;;5013145;28;20022;-70
2022/09/29 03:50:45;;;;;;;24.13;4.82;;;20.80;91.30;;;;;;5013126;28;20030;-70
2022/09/29 03:53:11;;;;;;;15.48;2.80;;;20.80;91.20;;;;;;5013249;28;20033;-71
2022/09/29 03:55:37;;;;;;;16.10;2.75;;;20.80;91.20;;;;;;5013033;28;20103;-68
2022/09/29 03:58:02;;;;;;;14.57;2.65;;;20.90;91.10;;;;;;5013154;28;20483;-68
2022/09/29 04:00:28;;;;;;;19.15;3.45;;;20.90;91.20;;;;;;5012900;28;20030;-68
2022/09/29 04:02:54;;;;;;;15.73;2.90;;;20.90;91.20;;;;;;5012989;28;20083;-71
2022/09/29 04:05:20;;;;;;;17.83;3.45;;;20.90;91.10;;;;;;4995284;28;20033;-70
2022/09/29 04:07:45;;;;;;;16.73;3.05;;;20.90;91.10;;;;;;5012405;28;20501;-72
2022/09/29 04:10:11;;;;;;;23.08;3.35;;;20.90;91.10;;;;;;5011997;28;20512;-71
2022/09/29 04:12:37;;;;;;;15.60;2.70;;;20.80;91.20;;;;;;5011882;28;20487;-71
2022/09/29 04:15:03;;;;;;;15.13;2.97;;;20.80;91.20;;;;;;5011892;28;20025;-71
2022/09/29 04:17:29;;;;;;;16.08;2.92;;;20.80;91.30;;;;;;5011781;28;20018;-72
2022/09/29 04:19:54;;;;;;;15.20;3.13;;;20.80;91.30;;;;;;5011769;28;20041;-71
2022/09/29 04:22:20;;;;;;;15.40;3.40;;;20.80;91.30;;;;;;5011867;28;20030;-71
2022/09/29 04:24:50;;;;;;;22.48;3.55;;;20.90;91.40;;;;;;5011709;28;20029;-70
2022/09/29 04:27:17;;;;;;;15.88;3.10;;;20.90;91.30;;;;;;5011788;28;20483;-71
2022/09/29 04:29:42;;;;;;;15.05;3.10;;;20.90;91.30;;;;;;5011717;28;20037;-68
2022/09/29 04:32:08;;;;;;;19.40;3.38;;;21.00;91.30;;;;;;5011644;28;20022;-71
2022/09/29 04:34:34;;;;;;;14.35;2.83;;;20.90;91.20;;;;;;5011570;28;20495;-70
2022/09/29 04:37:00;;;;;;;18.27;3.38;;;21.00;91.20;;;;;;5011736;28;20144;-69
2022/09/29 04:39:26;;;;;;;14.77;2.70;;;21.00;91.30;;;;;;5014569;28;20037;-71
2022/09/29 04:41:52;;;;;;;14.52;2.80;;;21.00;91.20;;;;;;5015107;28;20495;-69
2022/09/29 04:44:21;;;;;;;14.00;3.08;;;21.00;91.30;;;;;;5014956;28;20076;-70
2022/09/29 04:46:49;;;;;;;18.83;3.17;;;21.00;91.30;;;;;;5015078;28;20080;-70
2022/09/29 04:49:15;;;;;;;13.48;2.90;;;20.90;91.30;;;;;;5015118;28;20030;-70
2022/09/29 04:51:40;;;;;;;19.98;3.58;;;20.90;91.40;;;;;;5014803;28;20503;-70
2022/09/29 04:54:06;;;;;;;16.08;3.30;;;20.90;91.40;;;;;;5014817;28;20030;-73
2022/09/29 04:56:32;;;;;;;12.90;2.95;;;20.80;91.50;;;;;;5014801;28;20022;-70
2022/09/29 04:58:58;;;;;;;16.23;2.97;;;20.80;91.50;;;;;;5014787;28;20059;-69
2022/09/29 05:01:24;;;;;;;14.70;2.95;;;20.80;91.70;;;;;;5014681;28;20066;-68
2022/09/29 05:03:49;;;;;;;14.65;2.88;;;20.70;91.70;;;;;;5014525;28;20021;-67
2022/09/29 05:06:16;;;;;;;15.45;2.75;;;20.70;91.70;;;;;;5014596;28;20549;-69
2022/09/29 05:08:42;;;;;;;16.15;3.72;;;20.70;91.80;;;;;;4965623;28;1436317;-70
2022/09/29 05:11:08;;;;;;;12.15;2.22;;;20.70;92.10;;;;;;5015965;28;20092;-71
2022/09/29 05:13:34;;;;;;;22.48;3.45;;;20.70;91.90;;;;;;5015635;28;20022;-70
2022/09/29 05:16:00;;;;;;;14.68;2.88;;;20.60;92.00;;;;;;5015418;28;20022;-68
2022/09/29 05:18:26;;;;;;;11.55;2.58;;;20.60;92.00;;;;;;5015577;28;20049;-70
2022/09/29 05:20:52;;;;;;;15.68;3.53;;;20.60;92.00;;;;;;5015624;28;20034;-69
2022/09/29 05:23:18;;;;;;;16.33;3.05;;;20.60;92.00;;;;;;5015752;28;20471;-71
2022/09/29 05:25:44;;;;;;;14.68;3.40;;;20.60;92.00;;;;;;5015634;28;20030;-69
2022/09/29 05:28:11;;;;;;;13.13;3.33;;;20.60;91.90;;;;;;5015616;28;20022;-71
2022/09/29 05:30:37;;;;;;;15.85;3.40;;;20.60;91.80;;;;;;5015780;28;20133;-69
2022/09/29 05:33:03;;;;;;;17.38;3.40;;;20.60;91.90;;;;;;5015457;28;20022;-68
2022/09/29 05:35:29;;;;;;;16.20;3.50;;;20.50;91.70;;;;;;4997761;28;20026;-69
2022/09/29 05:37:55;;;;;;;15.88;3.38;;;20.50;91.80;;;;;;5015293;28;20040;-70
2022/09/29 05:40:23;;;;;;;17.23;3.38;;;20.60;91.80;;;;;;5015176;28;20030;-71
2022/09/29 05:42:49;;;;;;;18.02;3.13;;;20.60;91.80;;;;;;5015101;28;20030;-71
2022/09/29 05:45:15;;;;;;;15.05;3.65;;;20.60;91.70;;;;;;5015147;28;20030;-70
2022/09/29 05:47:42;;;;;;;16.30;3.30;;;20.50;91.70;;;;;;5004255;28;20086;-69
2022/09/29 05:50:11;;;;;;;13.77;3.47;;;20.60;91.70;;;;;;4992415;28;20027;-72
2022/09/29 05:52:38;;;;;;;14.63;3.28;;;20.50;91.60;;;;;;4992733;28;20033;-70
2022/09/29 05:55:04;;;;;;;11.88;2.88;;;20.60;91.60;;;;;;4976783;28;20026;-70
2022/09/29 05:57:30;;;;;;;14.45;3.45;;;20.60;91.60;;;;;;4976550;28;20031;-68
2022/09/29 05:59:56;;;;;;;15.18;3.50;;;20.60;91.50;;;;;;4991849;28;20038;-70
2022/09/29 06:02:22;;;;;;;14.50;3.50;;;20.70;91.40;;;;;;5015416;28;20525;-70
2022/09/29 06:04:48;;;;;;;19.92;3.17;;;20.80;91.30;;;;;;5015038;28;20475;-69
2022/09/29 06:07:14;;;;;;;15.23;2.92;;;20.90;91.00;;;;;;5015134;28;20030;-72
2022/09/29 06:09:39;;;;;;;17.45;3.80;;;21.00;90.90;;;;;;5015178;28;20376;-70
2022/09/29 06:12:05;;;;;;;10.95;2.60;;;21.10;90.50;;;;;;5015953;28;20025;-72
2022/09/29 06:14:31;;;;;;;10.88;2.42;;;21.30;90.30;;;;;;5016751;28;20026;-72
2022/09/29 06:16:57;;;;;;;15.05;3.15;;;21.40;90.00;;;;;;5000777;28;20030;-70
2022/09/29 06:19:22;;;;;;;10.13;2.70;;;21.50;89.50;;;;;;4997032;28;20030;-73
2022/09/29 06:21:48;;;;;;;14.55;3.28;;;21.70;88.80;;;;;;4995575;28;20058;-71
2022/09/29 06:24:14;;;;;;;15.88;3.53;;;21.80;88.30;;;;;;4975919;28;20449;-71
2022/09/29 06:26:39;;;;;;;14.27;3.53;;;22.00;87.60;;;;;;4976149;28;20035;-71
2022/09/29 06:29:05;;;;;;;15.07;4.03;;;22.10;87.10;;;;;;4979353;28;20022;-71
2022/09/29 06:31:31;;;;;;;15.27;3.22;;;22.20;86.40;;;;;;4977785;28;20030;-75
2022/09/29 06:34:02;;;;;;;19.27;3.13;;;22.40;86.00;;;;;;4976237;28;20433;-74
2022/09/29 06:39:19;;;;;;;10.27;2.90;;;22.80;84.50;;;;;;4978128;28;20046;-73
2022/09/29 06:41:52;;;;;;;16.08;2.95;;;23.00;83.90;;;;;;4992124;28;20392;-74
2022/09/29 06:44:19;;;;;;;12.37;2.70;;;23.20;83.00;;;;;;4995374;28;20025;-73
2022/09/29 06:46:45;;;;;;;10.63;2.55;;;23.10;82.30;;;;;;4994890;28;20464;-71
2022/09/29 06:49:14;;;;;;;11.52;2.63;;;23.10;82.70;;;;;;4994898;28;20041;-73
2022/09/29 06:51:40;;;;;;;10.48;2.40;;;23.20;82.50;;;;;;4994636;28;20041;-71
2022/09/29 06:54:06;;;;;;;13.98;3.58;;;23.20;82.60;;;;;;4994380;28;20094;-72
2022/09/29 06:56:31;;;;;;;15.27;3.35;;;23.30;81.80;;;;;;4977174;28;20102;-72
2022/09/29 06:58:57;;;;;;;16.27;3.40;;;23.40;81.10;;;;;;4994642;28;20026;-74
2022/09/29 07:01:23;;;;;;;15.50;2.83;;;23.50;80.60;;;;;;4976043;28;20490;-73
2022/09/29 07:03:48;;;;;;;11.43;2.58;;;23.60;80.60;;;;;;4994133;28;20032;-74
2022/09/29 07:06:14;;;;;;;10.70;2.35;;;23.70;80.10;;;;;;4994108;28;20049;-71
2022/09/29 07:08:40;;;;;;;11.27;2.28;;;23.80;79.40;;;;;;4988039;28;20114;-74
2022/09/29 07:11:07;;;;;;;11.95;2.55;;;23.80;80.00;;;;;;4975119;28;20121;-73
2022/09/29 07:13:33;;;;;;;14.68;2.53;;;23.80;78.50;;;;;;4974985;28;20444;-75
2022/09/29 07:16:07;;;;;;;13.00;2.58;;;23.80;78.50;;;;;;4975278;28;20038;-72
2022/09/29 07:18:38;;;;;;;14.70;3.38;;;23.80;78.30;;;;;;4975169;28;20053;-73
2022/09/29 07:21:05;;;;;;;12.27;2.92;;;23.90;78.30;;;;;;4957717;28;20042;-72
2022/09/29 07:23:32;;;;;;;11.93;2.58;;;24.00;78.30;;;;;;4975545;28;20029;-70
2022/09/29 07:25:58;;;;;;;12.40;2.47;;;24.00;78.00;;;;;;4985036;28;20487;-70
2022/09/29 07:28:24;;;;;;;11.43;2.13;;;24.10;77.70;;;;;;4993568;28;20022;-70
2022/09/29 07:31:11;;;;;;;15.13;2.90;;;24.10;77.50;;;;;;4993635;28;20058;-70
2022/09/29 07:33:37;;;;;;;13.13;3.63;;;24.10;78.50;;;;;;4993533;28;20023;-68
2022/09/29 07:36:03;;;;;;;13.77;3.05;;;24.10;77.60;;;;;;4993548;28;20360;-70
2022/09/29 07:38:31;;;;;;;12.35;2.80;;;24.20;77.40;;;;;;4993508;28;20033;-70
2022/09/29 07:41:07;;;;;;;12.82;2.72;;;24.20;77.50;;;;;;4993449;28;20057;-71
2022/09/29 07:43:33;;;;;;;14.18;2.80;;;24.30;77.60;;;;;;4993400;28;20030;-70
2022/09/29 07:45:59;;;;;;;12.82;2.97;;;24.30;77.10;;;;;;4993419;28;20022;-72
2022/09/29 07:48:26;;;;;;;10.48;3.10;;;24.30;77.20;;;;;;4993653;28;20049;-69
2022/09/29 07:50:52;;;;;;;10.90;3.17;;;24.30;77.70;;;;;;4993530;28;20534;-69
2022/09/29 07:53:17;;;;;;;17.17;3.15;;;24.30;78.00;;;;;;4993436;28;20018;-71
2022/09/29 07:55:43;;;;;;;16.05;3.25;;;24.20;77.80;;;;;;4993232;28;20044;-68
2022/09/29 07:58:09;;;;;;;15.27;3.35;;;24.20;78.20;;;;;;4992922;28;20031;-67
2022/09/29 08:00:35;;;;;;;12.10;3.20;;;24.10;78.20;;;;;;4993536;28;20173;-68
2022/09/29 08:03:08;;;;;;;12.55;3.80;;;24.10;77.60;;;;;;4993419;28;20081;-68
2022/09/29 08:05:34;;;;;;;12.95;2.90;;;24.00;78.00;;;;;;4993116;28;20027;-69
2022/09/29 08:08:04;;;;;;;17.75;3.35;;;24.00;77.90;;;;;;4992914;28;20189;-70
2022/09/29 08:10:32;;;;;;;15.45;2.88;;;24.00;78.00;;;;;;4992982;28;20025;-69
2022/09/29 08:12:58;;;;;;;14.48;3.10;;;24.10;78.70;;;;;;4975544;28;20034;-69
2022/09/29 08:15:24;;;;;;;13.80;2.65;;;24.10;78.80;;;;;;4993068;28;20490;-71
2022/09/29 08:17:56;;;;;;;14.20;2.53;;;24.20;78.80;;;;;;4992836;28;20050;-70
2022/09/29 08:20:22;;;;;;;10.18;2.63;;;24.30;77.70;;;;;;4993253;28;20098;-68
2022/09/29 08:22:48;;;;;;;8.20;2.55;;;24.30;77.50;;;;;;4992816;28;20114;-67
2022/09/29 08:25:17;;;;;;;8.98;2.95;;;24.40;77.50;;;;;;4993109;28;20069;-71
2022/09/29 08:27:43;;;;;;;15.93;4.20;;;24.50;77.40;;;;;;4993251;28;20018;-69
2022/09/29 08:30:09;;;;;;;13.13;4.85;;;24.50;76.70;;;;;;4975569;28;20045;-71
2022/09/29 08:32:35;;;;;;;17.30;4.63;;;24.50;77.30;;;;;;4993313;28;20432;-71
2022/09/29 08:35:02;;;;;;;15.45;5.43;;;24.60;77.60;;;;;;4992658;28;20027;-72
2022/09/29 08:37:28;;;;;;;12.77;3.00;;;24.70;76.70;;;;;;4993018;28;20534;-70
2022/09/29 08:39:54;;;;;;;13.60;2.97;;;24.80;76.40;;;;;;4992642;28;20034;-71
2022/09/29 08:42:22;;;;;;;14.35;3.03;;;24.80;75.80;;;;;;4992611;28;20444;-72
2022/09/29 08:44:59;;;;;;;14.75;2.85;;;24.90;75.80;;;;;;4992682;28;20026;-71
2022/09/29 08:47:29;;;;;;;13.27;2.50;;;24.90;75.30;;;;;;4992926;28;20030;-71
2022/09/29 08:50:05;;;;;;;11.43;2.63;;;24.90;76.10;;;;;;4992789;28;20492;-71
2022/09/29 08:52:37;;;;;;;11.38;2.85;;;24.80;75.30;;;;;;4992556;28;20030;-72
2022/09/29 08:55:15;;;;;;;11.30;2.17;;;24.70;75.50;;;;;;4992817;28;20403;-74
2022/09/29 08:57:41;;;;;;;15.30;3.20;;;24.70;76.00;;;;;;4992650;28;20495;-69
2022/09/29 09:00:12;;;;;;;15.35;3.20;;;24.70;76.00;;;;;;4992557;28;20027;-73
2022/09/29 09:03:03;;;;;;;14.10;3.05;;;24.60;76.10;;;;;;4992998;28;20030;-72
2022/09/29 09:05:46;;;;;;;10.93;3.03;;;24.60;76.40;;;;;;4992119;28;20031;-71
2022/09/29 09:08:12;;;;;;;;;;;24.50;75.90;;;;;;4992782;28;20050;-71
2022/09/29 09:10:56;;;;;;;10.77;2.75;;;24.50;75.70;;;;;;4992702;28;19925;-71
2022/09/29 09:13:43;;;;;;;16.33;2.47;;;24.50;76.00;;;;;;4992359;28;20106;-73
2022/09/29 09:16:25;;;;;;;11.50;2.45;;;24.50;76.00;;;;;;4992293;28;20031;-71
2022/09/29 09:19:11;;;;;;;10.02;2.35;;;24.60;75.20;;;;;;4992581;28;20103;-69
2022/09/29 09:21:46;;;;;;;8.07;2.20;;;24.70;75.80;;;;;;4974804;28;20038;-70
2022/09/29 09:24:15;;;;;;;15.43;3.20;;;24.70;74.30;;;;;;4993476;28;20452;-71
2022/09/29 09:26:43;;;;;;;11.57;2.45;;;24.60;75.80;;;;;;4996072;28;20034;-71
2022/09/29 09:29:20;;;;;;;12.82;2.00;;;24.70;75.90;;;;;;4995831;28;20010;-70
2022/09/29 09:31:52;;;;;;;7.28;2.15;;;24.70;74.20;;;;;;4978312;28;20058;-71
2022/09/29 09:34:43;;;;;;;12.77;2.70;;;24.70;75.10;;;;;;4995628;28;20396;-69
2022/09/29 09:37:24;;;;;;;11.05;1.70;;;24.80;75.50;;;;;;4969218;28;20041;-70
2022/09/29 09:40:01;;;;;;;11.55;2.00;;;24.90;74.40;;;;;;4995636;28;20508;-71
2022/09/29 09:42:32;;;;;;;8.43;2.15;;;24.90;74.00;;;;;;4977810;28;20096;-72
2022/09/29 09:45:09;;;;;;;14.63;2.53;;;24.90;74.40;;;;;;4995329;28;20041;-75
2022/09/29 09:47:44;;;;;;;11.60;2.20;;;25.00;74.70;;;;;;4995502;28;20026;-70
2022/09/29 09:50:16;;;;;;;12.40;2.25;;;25.20;74.00;;;;;;4995507;28;20143;-73
2022/09/29 09:52:52;;;;;;;10.23;2.90;;;25.30;73.20;;;;;;4995380;28;20027;-73
2022/09/29 09:55:24;;;;;;;12.48;3.42;;;25.40;72.30;;;;;;4995034;28;20034;-76
2022/09/29 09:58:05;;;;;;;10.52;4.60;;;25.60;71.40;;;;;;4995397;28;20015;-75
2022/09/29 10:00:47;;;;;;;11.50;3.22;;;25.60;72.20;;;;;;4995415;28;20160;-75
2022/09/29 10:03:15;;;;;;;8.88;2.83;;;25.60;72.40;;;;;;4995379;28;20052;-73
2022/09/29 10:05:44;;;;;;;11.18;2.38;;;25.70;71.90;;;;;;4995261;28;20404;-73
2022/09/29 10:08:38;;;;;;;9.82;2.33;;;25.80;71.20;;;;;;4995053;28;20054;-73
2022/09/29 10:11:19;;;;;;;17.33;2.35;;;25.90;70.10;;;;;;4995464;28;20038;-75
2022/09/29 10:13:46;;;;;;;16.55;2.45;;;25.80;70.00;;;;;;4996377;28;20045;-71
2022/09/29 10:16:27;;;;;;;9.65;2.10;;;25.90;70.90;;;;;;4977601;28;20479;-74
2022/09/29 10:18:55;;;;;;;10.45;2.22;;;25.90;70.00;;;;;;4978359;28;20520;-78
2022/09/29 10:21:37;;;;;;;15.27;2.63;;;25.90;71.30;;;;;;4978985;28;20117;-80
2022/09/29 10:24:06;;;;;;;10.25;2.55;;;26.00;70.50;;;;;;4995540;28;20041;-78
2022/09/29 10:26:47;;;;;;;9.27;2.17;;;26.10;71.00;;;;;;4995612;28;20057;-84
2022/09/29 10:29:25;;;;;;;11.80;2.22;;;26.30;70.20;;;;;;4996014;28;20057;-82
2022/09/29 10:32:08;;;;;;;8.20;1.65;;;26.50;69.90;;;;;;4996354;28;20068;-84
2022/09/29 10:34:39;;;;;;;6.57;1.40;;;26.60;69.00;;;;;;4995911;28;20023;-71
2022/09/29 10:37:36;;;;;;;7.07;1.50;;;26.50;68.10;;;;;;4994988;28;20487;-68
2022/09/29 10:40:13;;;;;;;8.05;1.80;;;26.50;67.20;;;;;;4977630;28;20046;-71
2022/09/29 10:42:45;;;;;;;4.43;1.50;;;26.60;66.70;;;;;;4996322;28;20052;-70
2022/09/29 10:45:17;;;;;;;8.50;1.60;;;26.60;67.70;;;;;;4994929;28;20075;-70
2022/09/29 10:48:13;;;;;;;8.70;2.10;;;26.70;67.50;;;;;;4995030;28;20041;-73
2022/09/29 10:50:55;;;;;;;6.68;1.60;;;26.80;66.20;;;;;;4993077;28;20149;-75
2022/09/29 10:53:30;;;;;;;5.35;1.38;;;26.80;66.20;;;;;;4997389;28;20038;-79
2022/09/29 10:56:00;;;;;;;7.05;1.50;;;26.90;65.40;;;;;;4997407;28;20037;-75
2022/09/29 10:58:58;;;;;;;9.93;1.75;;;27.00;65.90;;;;;;4996669;28;20096;-75
2022/09/29 11:01:26;;;;;;;7.20;1.55;;;27.00;65.30;;;;;;4983134;28;20050;-72
2022/09/29 11:04:15;;;;;;;11.02;1.88;;;26.90;64.50;;;;;;4976536;28;20107;-69
2022/09/29 11:06:40;;;;;;;8.25;1.75;;;27.00;64.50;;;;;;4994368;28;20026;-69
2022/09/29 11:09:27;;;;;;;6.07;1.60;;;27.00;64.40;;;;;;4994119;28;20060;-76
2022/09/29 11:11:56;;;;;;;11.30;1.65;;;27.00;63.40;;;;;;4994596;28;20439;-79
2022/09/29 11:14:31;;;;;;;10.75;1.92;;;27.10;62.70;;;;;;4994719;28;20065;-79
2022/09/29 11:17:01;;;;;;;6.38;1.30;;;27.10;61.90;;;;;;4993998;28;20026;-71
2022/09/29 11:19:31;;;;;;;8.98;2.00;;;27.10;61.70;;;;;;4993681;28;20026;-72
2022/09/29 11:22:14;;;;;;;8.40;2.00;;;27.00;61.60;;;;;;4994035;28;20045;-73
2022/09/29 11:24:52;;;;;;;60.28;5.43;;;27.10;61.60;;;;;;4993980;28;20387;-72
2022/09/29 11:27:21;;;;;;;12.65;2.00;;;27.20;61.40;;;;;;4994184;28;20038;-75
2022/09/29 11:30:16;;;;;;;14.50;2.50;;;27.30;60.50;;;;;;4994270;28;20468;-75
2022/09/29 11:33:00;;;;;;;15.40;2.28;;;27.20;59.80;;;;;;4986353;28;20453;-75
2022/09/29 11:35:41;;;;;;;;;;;27.20;60.10;;;;;;4976304;28;20070;-77
2022/09/29 11:38:47;;;;;;;8.77;1.63;;;27.10;59.40;;;;;;4993628;28;20001;-73
2022/09/29 11:41:26;;;;;;;11.38;1.60;;;27.10;60.20;;;;;;4993590;28;20046;-75
2022/09/29 11:44:19;;;;;;;6.15;1.55;;;27.10;59.60;;;;;;4993525;28;20468;-74
2022/09/29 11:47:01;;;;;;;8.73;2.13;;;27.10;59.50;;;;;;4993063;28;20065;-71
2022/09/29 11:50:01;;;;;;;10.00;1.45;;;27.10;60.00;;;;;;4975844;28;20026;-75
2022/09/29 11:52:47;;;;;;;8.15;1.65;;;27.10;59.90;;;;;;4994327;28;20026;-74
2022/09/29 11:55:32;;;;;;;10.00;2.15;;;27.10;60.40;;;;;;4993444;28;20030;-72
2022/09/29 11:58:23;;;;;;;12.32;1.80;;;27.10;61.00;;;;;;4993295;28;20034;-77
2022/09/29 12:01:07;;;;;;;5.22;1.20;;;27.20;62.10;;;;;;4993729;28;20061;-79
2022/09/29 12:03:54;;;;;;;9.60;1.55;;;27.30;62.10;;;;;;4994503;28;20019;-85
2022/09/29 12:06:43;;;;;;;62.70;7.10;;;27.40;62.40;;;;;;4994035;28;20042;-72
2022/09/29 12:09:38;;;;;;;7.22;1.40;;;27.50;62.50;;;;;;4993227;28;20093;-70
2022/09/29 12:12:07;;;;;;;10.98;1.98;;;27.60;61.20;;;;;;4993232;28;20119;-74
2022/09/29 12:14:37;;;;;;;7.85;1.77;;;27.70;61.20;;;;;;4993126;28;20072;-75
2022/09/29 12:17:10;;;;;;;5.85;1.30;;;27.70;61.00;;;;;;4994073;28;20035;-67
2022/09/29 12:19:39;;;;;;;6.70;1.77;;;27.70;61.10;;;;;;4994249;28;20010;-71
2022/09/29 12:22:09;;;;;;;8.75;1.45;;;27.70;61.00;;;;;;4993518;28;20049;-70
2022/09/29 12:24:55;;;;;;;4.82;1.58;;;27.70;61.00;;;;;;4993326;28;20026;-70
2022/09/29 12:27:39;;;;;;;6.93;1.90;;;27.60;60.90;;;;;;4993348;28;20436;-74
2022/09/29 12:30:17;;;;;;;6.13;1.80;;;27.60;60.10;;;;;;4993162;28;20030;-71
2022/09/29 12:33:09;;;;;;;7.15;1.67;;;27.50;60.30;;;;;;4993248;28;20146;-71
2022/09/29 12:35:53;;;;;;;7.75;1.70;;;27.40;60.70;;;;;;4993717;28;20534;-75
2022/09/29 12:38:41;;;;;;;7.68;1.80;;;27.30;60.90;;;;;;4975549;28;20030;-74
2022/09/29 12:41:25;;;;;;;7.40;1.30;;;27.40;60.70;;;;;;4993326;28;20057;-73
2022/09/29 12:44:05;;;;;;;6.40;1.70;;;27.30;60.50;;;;;;4992817;28;20468;-78
2022/09/29 12:46:55;;;;;;;5.07;1.27;;;27.20;60.70;;;;;;4993492;28;20019;-76
2022/09/29 12:49:37;;;;;;;6.65;1.30;;;27.10;60.30;;;;;;4975558;28;20129;-72
2022/09/29 12:52:08;;;;;;;5.82;1.10;;;26.90;61.20;;;;;;4993137;28;20031;-72
2022/09/29 12:55:04;;;;;;;9.30;1.58;;;27.00;61.50;;;;;;4993426;28;20109;-76
2022/09/29 12:57:38;;;;;;;4.93;1.50;;;26.90;61.90;;;;;;4990987;28;20039;-71
2022/09/29 13:00:12;;;;;;;4.97;1.35;;;26.90;62.20;;;;;;4995046;28;20489;-71
2022/09/29 13:03:01;;;;;;;9.88;1.92;;;27.00;62.40;;;;;;4997195;28;20113;-70
2022/09/29 13:05:33;;;;;;;6.88;1.30;;;27.00;62.60;;;;;;4996776;28;20479;-76
2022/09/29 13:08:39;;;;;;;9.45;2.17;;;26.90;62.90;;;;;;4996415;28;20407;-68